createdAt,value
2023-11-14T00:01:31.408Z,99912.86
2023-11-14T00:03:59.185Z,99921.08
2023-11-14T00:06:26.869Z,99930.17
2023-11-14T00:08:55.462Z,99928.22
2023-11-14T00:11:25.463Z,99922.36
2023-11-14T00:13:53.198Z,99916.16
2023-11-14T00:16:21.064Z,99914.48
2023-11-14T00:18:48.834Z,99919.80
2023-11-14T00:21:16.573Z,99920.39
2023-11-14T00:23:44.718Z,99920.20
2023-11-14T00:26:12.399Z,99922.95
2023-11-14T00:28:40.813Z,99925.91
2023-11-14T00:31:09.021Z,99921.33
2023-11-14T00:33:36.708Z,99925.12
2023-11-14T00:36:05.439Z,99923.95
2023-11-14T00:38:33.126Z,99920.98
2023-11-14T00:41:02.882Z,99921.39
2023-11-14T00:43:30.904Z,99920.89
2023-11-14T00:45:58.670Z,99922.24
2023-11-14T00:48:27.173Z,99919.11
2023-11-14T00:50:55.439Z,99920.70
2023-11-14T00:53:23.131Z,99915.11
2023-11-14T00:55:51.553Z,99908.23
2023-11-14T00:58:19.382Z,99901.52
2023-11-14T01:00:47.642Z,99901.37
2023-11-14T01:03:15.943Z,99904.17
2023-11-14T01:05:43.703Z,99897.45
2023-11-14T01:08:11.627Z,99898.64
2023-11-14T01:10:39.439Z,99897.88
2023-11-14T01:13:07.190Z,99898.13
2023-11-14T01:15:34.902Z,99903.11
2023-11-14T01:18:02.660Z,99896.18
2023-11-14T01:20:30.512Z,99891.40
2023-11-14T01:22:58.452Z,99894.13
2023-11-14T01:25:27.511Z,99890.05
2023-11-14T01:27:55.224Z,99887.02
2023-11-14T01:30:22.938Z,99878.46
2023-11-14T01:32:51.009Z,99877.88
2023-11-14T01:35:18.672Z,99878.47
2023-11-14T01:37:46.343Z,99878.05
2023-11-14T01:40:14.718Z,99878.01
2023-11-14T01:42:42.542Z,99881.88
2023-11-14T01:45:10.519Z,99881.14
2023-11-14T01:47:38.369Z,99882.61
2023-11-14T01:50:07.191Z,99886.19
2023-11-14T01:52:36.171Z,99889.25
2023-11-14T01:55:05.070Z,99892.24
2023-11-14T01:57:33.229Z,99893.66
2023-11-14T02:00:02.567Z,99896.04
2023-11-14T02:02:41.840Z,99896.75
2023-11-14T02:05:10.578Z,99893.17
2023-11-14T02:07:41.098Z,99892.34
2023-11-14T02:10:09.521Z,99894.05
2023-11-14T02:12:37.817Z,99892.57
2023-11-14T02:15:07.076Z,99888.73
2023-11-14T02:17:34.848Z,99882.81
2023-11-14T02:20:03.906Z,99884.70
2023-11-14T02:22:31.834Z,99882.93
2023-11-14T02:24:59.779Z,99882.91
2023-11-14T02:27:27.588Z,99876.80
2023-11-14T02:29:55.569Z,99877.94
2023-11-14T02:32:23.343Z,99881.98
2023-11-14T02:34:54.167Z,99885.06
2023-11-14T02:37:22.366Z,99884.64
2023-11-14T02:39:50.035Z,99882.65
2023-11-14T02:42:18.192Z,99886.94
2023-11-14T02:44:47.481Z,99883.64
2023-11-14T02:47:15.258Z,99886.02
2023-11-14T02:49:52.209Z,99887.14
2023-11-14T02:52:20.561Z,99891.57
2023-11-14T02:54:48.211Z,99893.64
2023-11-14T02:57:15.845Z,99893.01
2023-11-14T02:59:43.478Z,99896.20
2023-11-14T03:02:11.227Z,99893.95
2023-11-14T03:04:39.013Z,99889.87
2023-11-14T03:07:06.895Z,99894.52
2023-11-14T03:09:34.798Z,99890.08
2023-11-14T03:12:02.734Z,99891.40
2023-11-14T03:14:30.435Z,99893.17
2023-11-14T03:16:58.271Z,99893.09
2023-11-14T03:19:26.034Z,99895.23
2023-11-14T03:21:53.687Z,99894.81
2023-11-14T03:24:22.504Z,99887.23
2023-11-14T03:26:50.838Z,99881.28
2023-11-14T03:29:18.504Z,99883.34
2023-11-14T03:31:46.250Z,99884.10
2023-11-14T03:34:13.980Z,99881.91
2023-11-14T03:36:41.665Z,99890.30
2023-11-14T03:39:09.338Z,99891.67
2023-11-14T03:41:37.021Z,99897.91
2023-11-14T03:44:04.886Z,99898.29
2023-11-14T03:46:33.032Z,99905.03
2023-11-14T03:49:00.807Z,99904.34
2023-11-14T03:51:28.528Z,99910.48
2023-11-14T03:53:56.197Z,99913.23
2023-11-14T03:56:23.849Z,99912.39
2023-11-14T03:58:51.644Z,99905.40
2023-11-14T04:01:19.323Z,99900.53
2023-11-14T04:03:47.068Z,99902.11
2023-11-14T04:06:16.133Z,99901.02
2023-11-14T04:08:43.834Z,99903.72
2023-11-14T04:11:14.540Z,99907.77
2023-11-14T04:13:42.524Z,99903.61
2023-11-14T04:16:10.822Z,99907.39
2023-11-14T04:18:39.859Z,99900.73
2023-11-14T04:21:07.861Z,99902.80
2023-11-14T04:23:36.311Z,99901.73
2023-11-14T04:26:04.150Z,99901.52
2023-11-14T04:28:33.064Z,99899.38
2023-11-14T04:31:00.841Z,99899.20
2023-11-14T04:33:28.570Z,99906.02
2023-11-14T04:35:56.293Z,99912.64
2023-11-14T04:38:24.683Z,99909.60
2023-11-14T04:40:54.811Z,99911.13
2023-11-14T04:43:22.533Z,99910.11
2023-11-14T04:45:50.190Z,99910.56
2023-11-14T04:48:17.961Z,99910.36
2023-11-14T04:50:45.639Z,99906.86
2023-11-14T04:53:13.379Z,99906.41
2023-11-14T04:55:44.128Z,99908.46
2023-11-14T04:58:11.780Z,99911.66
2023-11-14T05:00:40.375Z,99912.83
2023-11-14T05:03:08.263Z,99908.35
2023-11-14T05:05:36.644Z,99906.71
2023-11-14T05:08:04.807Z,99912.41
2023-11-14T05:10:32.483Z,99908.92
2023-11-14T05:13:00.836Z,99909.12
2023-11-14T05:15:28.661Z,99908.17
2023-11-14T05:17:58.282Z,99914.99
2023-11-14T05:20:26.218Z,99926.78
2023-11-14T05:22:54.162Z,99924.41
2023-11-14T05:25:21.863Z,99932.44
2023-11-14T05:27:51.250Z,99946.12
2023-11-14T05:30:18.961Z,99950.46
2023-11-14T05:32:49.687Z,99951.54
2023-11-14T05:35:18.056Z,99950.02
2023-11-14T05:37:45.920Z,99952.73
2023-11-14T05:40:16.434Z,99957.34
2023-11-14T05:42:44.123Z,99960.66
2023-11-14T05:45:12.349Z,99967.16
2023-11-14T05:47:40.052Z,99969.65
2023-11-14T05:50:08.805Z,99966.71
2023-11-14T05:52:36.685Z,99962.77
2023-11-14T05:55:05.012Z,99962.08
2023-11-14T05:57:32.670Z,99963.90
2023-11-14T06:00:00.335Z,99964.48
2023-11-14T06:02:28.136Z,99966.09
2023-11-14T06:05:00.664Z,99963.72
2023-11-14T06:07:30.128Z,99967.79
2023-11-14T06:09:57.835Z,99973.09
2023-11-14T06:12:25.857Z,99972.08
2023-11-14T06:14:53.513Z,99968.28
2023-11-14T06:17:21.221Z,99970.55
2023-11-14T06:19:48.901Z,99967.30
2023-11-14T06:22:16.618Z,99971.95
2023-11-14T06:24:44.376Z,99972.50
2023-11-14T06:27:12.086Z,99973.48
2023-11-14T06:29:40.265Z,99976.59
2023-11-14T06:32:08.245Z,99981.66
2023-11-14T06:34:36.021Z,99982.48
2023-11-14T06:37:03.790Z,99987.63
2023-11-14T06:39:31.426Z,99987.92
2023-11-14T06:42:00.231Z,99988.34
2023-11-14T06:44:27.974Z,99986.17
2023-11-14T06:46:55.668Z,99981.73
2023-11-14T06:49:24.505Z,99992.36
2023-11-14T06:51:52.644Z,99996.29
2023-11-14T06:54:20.390Z,99986.73
2023-11-14T06:56:48.099Z,99981.11
2023-11-14T06:59:15.821Z,99985.33
2023-11-14T07:01:43.500Z,99987.08
2023-11-14T07:04:11.643Z,99984.35
2023-11-14T07:06:39.327Z,99981.17
2023-11-14T07:09:07.096Z,99986.16
2023-11-14T07:11:34.749Z,99983.98
2023-11-14T07:14:02.496Z,99986.89
2023-11-14T07:16:30.209Z,99988.38
2023-11-14T07:18:57.917Z,99987.65
2023-11-14T07:21:25.544Z,99985.69
2023-11-14T07:23:53.297Z,99984.33
2023-11-14T07:26:21.130Z,99984.18
2023-11-14T07:28:49.010Z,99979.52
2023-11-14T07:31:18.048Z,99980.31
2023-11-14T07:33:46.238Z,99984.14
2023-11-14T07:36:13.968Z,99988.23
2023-11-14T07:38:44.564Z,99986.03
2023-11-14T07:41:12.309Z,99989.90
2023-11-14T07:43:40.857Z,99989.88
2023-11-14T07:46:10.509Z,99986.98
2023-11-14T07:48:38.316Z,99980.65
2023-11-14T07:51:06.038Z,99972.96
2023-11-14T07:53:33.745Z,99972.20
2023-11-14T07:56:01.833Z,99974.16
2023-11-14T07:58:30.725Z,99969.40
2023-11-14T08:00:58.673Z,99964.35
2023-11-14T08:03:26.604Z,99963.75
2023-11-14T08:05:54.462Z,99956.11
2023-11-14T08:08:22.163Z,99956.89
2023-11-14T08:10:49.884Z,99957.71
2023-11-14T08:13:18.047Z,99957.74
2023-11-14T08:15:46.001Z,99962.34
2023-11-14T08:18:14.502Z,99967.77
2023-11-14T08:20:42.255Z,99967.87
2023-11-14T08:23:10.044Z,99967.17
2023-11-14T08:25:37.728Z,99961.52
2023-11-14T08:28:06.084Z,99958.94
2023-11-14T08:30:33.828Z,99961.98
2023-11-14T08:33:01.558Z,99965.67
2023-11-14T08:35:29.324Z,99965.15
2023-11-14T08:38:07.259Z,99964.52
2023-11-14T08:40:41.944Z,99967.41
2023-11-14T08:43:09.732Z,99964.00
2023-11-14T08:45:37.532Z,99971.65
2023-11-14T08:48:05.424Z,99974.77
2023-11-14T08:50:36.913Z,99972.86
2023-11-14T08:53:05.306Z,99966.15
2023-11-14T08:55:33.223Z,99952.34
2023-11-14T08:58:03.895Z,99952.88
2023-11-14T09:00:31.811Z,99949.90
2023-11-14T09:03:02.608Z,99945.69
2023-11-14T09:05:30.824Z,99942.27
2023-11-14T09:07:58.613Z,99942.55
2023-11-14T09:10:26.367Z,99944.17
2023-11-14T09:12:54.177Z,99948.46
2023-11-14T09:15:21.992Z,99949.04
2023-11-14T09:17:54.473Z,99950.80
2023-11-14T09:20:24.602Z,99949.49
2023-11-14T09:22:52.742Z,99948.19
2023-11-14T09:25:21.925Z,99943.57
2023-11-14T09:27:49.847Z,99940.38
2023-11-14T09:30:18.733Z,99938.89
2023-11-14T09:32:47.699Z,99934.54
2023-11-14T09:35:17.063Z,99931.70
2023-11-14T09:37:45.270Z,99929.83
2023-11-14T09:40:21.705Z,99927.45
2023-11-14T09:42:53.358Z,99921.05
2023-11-14T09:45:21.743Z,99916.31
2023-11-14T09:47:51.292Z,99922.45
2023-11-14T09:50:19.288Z,99924.87
2023-11-14T09:52:47.277Z,99929.10
2023-11-14T09:55:16.186Z,99919.79
2023-11-14T09:57:49.883Z,99917.02
2023-11-14T10:00:19.853Z,99923.23
2023-11-14T10:02:48.186Z,99929.23
2023-11-14T10:05:17.864Z,99919.24
2023-11-14T10:07:46.797Z,99910.09
2023-11-14T10:10:15.434Z,99908.25
2023-11-14T10:12:43.697Z,99915.13
2023-11-14T10:15:11.592Z,99921.64
2023-11-14T10:17:48.044Z,99921.63
2023-11-14T10:20:21.188Z,99926.48
2023-11-14T10:22:59.121Z,99925.29
2023-11-14T10:25:39.828Z,99924.31
2023-11-14T10:28:08.089Z,99922.77
2023-11-14T10:30:50.326Z,99917.79
2023-11-14T10:33:18.731Z,99911.52
2023-11-14T10:35:47.095Z,99911.49
2023-11-14T10:38:28.859Z,99908.17
2023-11-14T10:40:57.575Z,99908.17
2023-11-14T10:43:38.398Z,99906.11
2023-11-14T10:46:11.608Z,99902.77
2023-11-14T10:48:39.492Z,99896.41
2023-11-14T10:51:11.312Z,99896.88
2023-11-14T10:53:41.093Z,99892.13
2023-11-14T10:56:12.734Z,99889.94
2023-11-14T10:58:40.805Z,99894.13
2023-11-14T11:01:09.418Z,99889.84
2023-11-14T11:03:38.506Z,99890.94
2023-11-14T11:06:07.287Z,99891.31
2023-11-14T11:08:35.878Z,99893.26
2023-11-14T11:11:07.931Z,99892.95
2023-11-14T11:13:37.065Z,99892.33
2023-11-14T11:16:05.552Z,99895.14
2023-11-14T11:18:38.950Z,99894.21
2023-11-14T11:21:15.778Z,99889.70
2023-11-14T11:24:06.693Z,99888.65
2023-11-14T11:26:54.437Z,99892.20
2023-11-14T11:30:06.130Z,99890.02
2023-11-14T11:32:37.536Z,99879.52
2023-11-14T11:35:19.488Z,99879.68
2023-11-14T11:37:48.337Z,99874.64
2023-11-14T11:40:18.976Z,99866.20
2023-11-14T11:42:46.879Z,99863.97
2023-11-14T11:45:34.883Z,99857.58
2023-11-14T11:48:04.124Z,99864.48
2023-11-14T11:50:36.794Z,99865.36
2023-11-14T11:53:06.388Z,99859.55
2023-11-14T11:55:36.881Z,99859.82
2023-11-14T11:58:09.823Z,99858.80
2023-11-14T12:00:37.799Z,99853.73
2023-11-14T12:03:07.044Z,99851.67
2023-11-14T12:05:35.294Z,99853.98
2023-11-14T12:08:05.933Z,99851.05
2023-11-14T12:10:35.374Z,99855.45
2023-11-14T12:13:05.922Z,99848.84
2023-11-14T12:15:34.025Z,99852.28
2023-11-14T12:18:04.558Z,99850.49
2023-11-14T12:20:33.741Z,99853.95
2023-11-14T12:23:01.771Z,99858.61
2023-11-14T12:25:29.490Z,99856.19
2023-11-14T12:28:02.624Z,99850.79
2023-11-14T12:30:31.045Z,99851.27
2023-11-14T12:33:08.471Z,99843.96
2023-11-14T12:35:51.950Z,99849.83
2023-11-14T12:38:38.620Z,99845.05
2023-11-14T12:41:26.797Z,99841.13
2023-11-14T12:44:07.892Z,99842.32
2023-11-14T12:46:38.744Z,99839.55
2023-11-14T12:49:19.602Z,99838.70
2023-11-14T12:51:53.562Z,99841.95
2023-11-14T12:54:23.287Z,99835.83
2023-11-14T12:56:53.401Z,99829.40
2023-11-14T12:59:21.775Z,99826.50
2023-11-14T13:01:52.015Z,99825.52
2023-11-14T13:04:20.402Z,99820.09
2023-11-14T13:06:49.102Z,99820.42
2023-11-14T13:09:18.494Z,99814.52
2023-11-14T13:11:46.932Z,99817.22
2023-11-14T13:14:15.323Z,99818.17
2023-11-14T13:16:45.046Z,99821.96
2023-11-14T13:19:14.118Z,99823.61
2023-11-14T13:21:41.993Z,99825.20
2023-11-14T13:24:09.838Z,99828.92
2023-11-14T13:26:38.204Z,99821.55
2023-11-14T13:29:07.757Z,99821.01
2023-11-14T13:31:36.052Z,99822.45
2023-11-14T13:34:04.149Z,99817.35
2023-11-14T13:36:32.064Z,99817.04
2023-11-14T13:38:59.843Z,99811.90
2023-11-14T13:41:29.930Z,99811.96
2023-11-14T13:43:57.960Z,99815.23
2023-11-14T13:46:28.579Z,99813.30
2023-11-14T13:48:57.330Z,99814.92
2023-11-14T13:51:26.169Z,99808.91
2023-11-14T13:53:54.445Z,99806.46
2023-11-14T13:56:23.086Z,99800.48
2023-11-14T13:58:51.407Z,99798.13
2023-11-14T14:01:19.680Z,99787.85
2023-11-14T14:03:48.006Z,99782.45
2023-11-14T14:06:15.914Z,99772.51
2023-11-14T14:08:44.014Z,99771.02
2023-11-14T14:11:12.940Z,99780.98
2023-11-14T14:13:41.293Z,99777.31
2023-11-14T14:16:09.834Z,99783.63
2023-11-14T14:18:40.008Z,99778.23
2023-11-14T14:21:08.391Z,99775.38
2023-11-14T14:23:36.669Z,99780.02
2023-11-14T14:26:07.365Z,99787.67
2023-11-14T14:28:40.149Z,99787.86
2023-11-14T14:31:10.662Z,99792.61
2023-11-14T14:33:39.979Z,99800.30
2023-11-14T14:36:08.228Z,99798.09
2023-11-14T14:38:36.017Z,99799.59
2023-11-14T14:41:04.019Z,99802.64
2023-11-14T14:43:32.510Z,99804.09
2023-11-14T14:46:00.392Z,99809.90
2023-11-14T14:48:28.221Z,99809.91
2023-11-14T14:50:55.904Z,99809.92
2023-11-14T14:53:25.084Z,99806.32
2023-11-14T14:55:53.313Z,99807.13
2023-11-14T14:58:21.859Z,99807.04
2023-11-14T15:00:49.844Z,99806.20
2023-11-14T15:03:22.376Z,99810.77
2023-11-14T15:05:51.946Z,99803.66
2023-11-14T15:08:21.111Z,99795.05
2023-11-14T15:10:50.729Z,99796.06
2023-11-14T15:13:20.549Z,99798.23
2023-11-14T15:15:52.261Z,99796.85
2023-11-14T15:18:20.666Z,99791.00
2023-11-14T15:20:51.132Z,99790.14
2023-11-14T15:23:19.064Z,99790.40
2023-11-14T15:25:48.738Z,99789.33
2023-11-14T15:28:16.663Z,99783.45
2023-11-14T15:30:45.080Z,99782.01
2023-11-14T15:33:13.062Z,99781.94
2023-11-14T15:35:41.069Z,99776.30
2023-11-14T15:38:09.722Z,99770.55
2023-11-14T15:40:37.409Z,99770.05
2023-11-14T15:43:05.141Z,99753.46
2023-11-14T15:45:32.982Z,99734.73
2023-11-14T15:48:00.787Z,99725.74
2023-11-14T15:50:28.536Z,99720.88
2023-11-14T15:52:56.354Z,99725.19
2023-11-14T15:55:25.106Z,99726.14
2023-11-14T15:57:53.771Z,99723.71
2023-11-14T16:00:21.659Z,99718.41
2023-11-14T16:02:50.061Z,99717.51
2023-11-14T16:05:18.673Z,99716.23
2023-11-14T16:07:46.485Z,99720.02
2023-11-14T16:10:14.383Z,99724.11
2023-11-14T16:12:42.247Z,99721.41
2023-11-14T16:15:11.358Z,99721.13
2023-11-14T16:17:40.068Z,99714.42
2023-11-14T16:20:08.614Z,99711.05
2023-11-14T16:22:39.020Z,99698.12
2023-11-14T16:25:07.270Z,99691.98
2023-11-14T16:27:35.085Z,99687.69
2023-11-14T16:30:02.805Z,99688.78
2023-11-14T16:32:30.560Z,99685.02
2023-11-14T16:34:59.931Z,99681.84
2023-11-14T16:37:27.678Z,99675.70
2023-11-14T16:39:55.431Z,99664.97
2023-11-14T16:42:23.307Z,99658.11
2023-11-14T16:44:51.497Z,99655.02
2023-11-14T16:47:19.253Z,99646.59
2023-11-14T16:49:48.696Z,99642.44
2023-11-14T16:52:17.330Z,99640.83
2023-11-14T16:54:45.399Z,99637.88
2023-11-14T16:57:13.353Z,99645.55
2023-11-14T16:59:44.470Z,99644.41
2023-11-14T17:02:13.055Z,99641.37
2023-11-14T17:04:41.257Z,99634.59
2023-11-14T17:07:09.439Z,99625.51
2023-11-14T17:09:37.399Z,99618.90
2023-11-14T17:12:06.611Z,99615.76
2023-11-14T17:14:34.474Z,99614.89
2023-11-14T17:17:03.061Z,99611.10
2023-11-14T17:19:31.401Z,99601.45
2023-11-14T17:21:59.091Z,99586.00
2023-11-14T17:24:27.661Z,99584.42
2023-11-14T17:26:55.961Z,99580.25
2023-11-14T17:29:23.706Z,99578.92
2023-11-14T17:31:53.783Z,99572.45
2023-11-14T17:34:21.840Z,99572.77
2023-11-14T17:36:49.623Z,99567.29
2023-11-14T17:39:17.363Z,99557.16
2023-11-14T17:41:46.099Z,99549.83
2023-11-14T17:44:14.305Z,99544.23
2023-11-14T17:46:42.172Z,99539.40
2023-11-14T17:49:14.169Z,99534.41
2023-11-14T17:51:43.457Z,99529.47
2023-11-14T17:54:11.792Z,99511.27
2023-11-14T17:56:39.765Z,99501.08
2023-11-14T17:59:07.699Z,99490.48
2023-11-14T18:01:35.724Z,99479.75
2023-11-14T18:04:03.993Z,99469.60
2023-11-14T18:06:32.251Z,99459.79
2023-11-14T18:09:00.134Z,99447.52
2023-11-14T18:11:27.914Z,99436.92
2023-11-14T18:13:55.729Z,99434.86
2023-11-14T18:16:24.270Z,99423.14
2023-11-14T18:18:52.166Z,99405.90
2023-11-14T18:21:19.864Z,99399.60
2023-11-14T18:23:47.642Z,99397.23
2023-11-14T18:26:15.355Z,99393.44
2023-11-14T18:28:43.113Z,99391.55
2023-11-14T18:31:12.158Z,99382.77
2023-11-14T18:33:39.958Z,99380.62
2023-11-14T18:36:10.167Z,99371.12
2023-11-14T18:38:40.809Z,99364.70
2023-11-14T18:41:09.471Z,99352.55
2023-11-14T18:43:37.314Z,99345.25
2023-11-14T18:46:05.172Z,99333.79
2023-11-14T18:48:34.544Z,99329.85
2023-11-14T18:51:02.437Z,99324.45
2023-11-14T18:53:30.221Z,99315.84
2023-11-14T18:55:57.928Z,99298.60
2023-11-14T18:58:25.629Z,99284.66
2023-11-14T19:01:00.642Z,99281.25
2023-11-14T19:03:29.230Z,99270.92
2023-11-14T19:05:57.245Z,99261.93
2023-11-14T19:08:25.045Z,99247.91
2023-11-14T19:10:53.426Z,99253.61
2023-11-14T19:13:21.465Z,99249.91
2023-11-14T19:15:49.301Z,99242.77
2023-11-14T19:18:19.456Z,99227.08
2023-11-14T19:23:41.576Z,99208.71
2023-11-14T19:26:09.826Z,99202.93
2023-11-14T19:28:38.486Z,99195.64
2023-11-14T19:31:06.343Z,99192.89
2023-11-14T19:33:34.051Z,99185.90
2023-11-14T19:36:01.794Z,99180.19
2023-11-14T19:38:32.144Z,99173.86
2023-11-14T19:40:59.969Z,99169.17
2023-11-14T19:43:29.903Z,99169.86
2023-11-14T19:46:00.026Z,99174.42
2023-11-14T19:48:27.821Z,99172.13
2023-11-14T19:50:56.691Z,99172.96
2023-11-14T19:53:24.518Z,99161.52
2023-11-14T19:55:52.249Z,99154.86
2023-11-14T19:58:19.973Z,99146.59
2023-11-14T20:00:47.956Z,99149.77
2023-11-14T20:03:15.792Z,99147.36
2023-11-14T20:05:43.707Z,99140.25
2023-11-14T20:08:11.572Z,99137.70
2023-11-14T20:10:39.371Z,99146.84
2023-11-14T20:13:07.277Z,99139.16
2023-11-14T20:15:35.113Z,99135.19
2023-11-14T20:18:04.733Z,99135.14
2023-11-14T20:20:33.760Z,99132.33
2023-11-14T20:23:01.616Z,99128.71
2023-11-14T20:25:31.136Z,99123.68
2023-11-14T20:28:00.542Z,99119.78
2023-11-14T20:30:28.266Z,99115.89
2023-11-14T20:32:56.184Z,99107.71
2023-11-14T20:35:24.930Z,99105.27
2023-11-14T20:37:54.263Z,99110.48
2023-11-14T20:40:23.377Z,99107.04
2023-11-14T20:42:51.680Z,99111.35
2023-11-14T20:45:20.211Z,99108.33
2023-11-14T20:47:48.067Z,99107.06
2023-11-14T20:50:16.798Z,99107.45
2023-11-14T20:52:47.076Z,99108.44
2023-11-14T20:55:15.498Z,99104.30
2023-11-14T20:57:43.327Z,99102.48
2023-11-14T21:00:12.685Z,99110.36
2023-11-14T21:02:40.674Z,99109.96
2023-11-14T21:05:08.959Z,99114.94
2023-11-14T21:07:36.852Z,99115.73
2023-11-14T21:10:06.580Z,99112.58
2023-11-14T21:12:34.836Z,99112.45
2023-11-14T21:15:02.891Z,99110.03
2023-11-14T21:17:42.671Z,99107.16
2023-11-14T21:20:18.983Z,99105.98
2023-11-14T21:22:47.212Z,99104.73
2023-11-14T21:25:15.405Z,99100.80
2023-11-14T21:27:43.122Z,99099.48
2023-11-14T21:30:11.021Z,99094.95
2023-11-14T21:32:40.724Z,99092.19
2023-11-14T21:35:09.754Z,99096.14
2023-11-14T21:37:38.749Z,99091.81
2023-11-14T21:40:08.090Z,99097.78
2023-11-14T21:42:35.711Z,99095.67
2023-11-14T21:45:03.634Z,99095.27
2023-11-14T21:47:31.337Z,99100.42
2023-11-14T21:49:59.085Z,99105.16
2023-11-14T21:52:26.915Z,99094.45
2023-11-14T21:54:54.587Z,99100.77
2023-11-14T21:57:22.277Z,99096.54
2023-11-14T21:59:51.723Z,99096.99
2023-11-14T22:02:19.752Z,99098.11
2023-11-14T22:04:48.840Z,99101.85
2023-11-14T22:07:16.573Z,99100.45
2023-11-14T22:09:44.263Z,99102.23
2023-11-14T22:12:12.248Z,99098.02
2023-11-14T22:14:40.118Z,99097.48
2023-11-14T22:17:08.468Z,99089.69
2023-11-14T22:19:36.148Z,99092.20
2023-11-14T22:22:03.842Z,99088.90
2023-11-14T22:24:31.544Z,99093.77
2023-11-14T22:26:59.211Z,99096.46
2023-11-14T22:29:26.914Z,99094.59
2023-11-14T22:31:54.752Z,99095.80
2023-11-14T22:34:22.457Z,99095.05
2023-11-14T22:36:50.177Z,99102.25
2023-11-14T22:39:19.220Z,99106.43
2023-11-14T22:41:47.100Z,99103.70
2023-11-14T22:44:14.796Z,99105.52
2023-11-14T22:46:43.461Z,99110.69
2023-11-14T22:49:11.116Z,99110.79
2023-11-14T22:51:38.806Z,99104.08
2023-11-14T22:54:07.007Z,99101.01
2023-11-14T22:56:34.784Z,99103.09
2023-11-14T22:59:02.765Z,99107.60
2023-11-14T23:01:38.337Z,99113.48
2023-11-14T23:04:09.858Z,99107.15
2023-11-14T23:06:40.934Z,99106.82
2023-11-14T23:09:16.249Z,99101.79
2023-11-14T23:11:45.672Z,99099.52
2023-11-14T23:14:15.924Z,99091.98
2023-11-14T23:16:44.501Z,99099.37
2023-11-14T23:19:12.277Z,99105.71
2023-11-14T23:21:46.038Z,99109.38
2023-11-14T23:24:22.020Z,99118.66
2023-11-14T23:26:49.983Z,99124.61
2023-11-14T23:29:17.847Z,99126.89
2023-11-14T23:31:45.562Z,99118.38
2023-11-14T23:34:13.291Z,99110.56
2023-11-14T23:36:40.980Z,99114.17
2023-11-14T23:39:08.807Z,99115.22
2023-11-14T23:41:37.550Z,99113.55
2023-11-14T23:44:05.977Z,99110.02
2023-11-14T23:46:33.726Z,99108.20
2023-11-14T23:49:03.505Z,99111.44
2023-11-14T23:51:32.716Z,99117.77
2023-11-14T23:54:01.487Z,99127.92
2023-11-14T23:56:29.241Z,99128.81
2023-11-14T23:58:56.916Z,99129.59
